createdAt,value
2018-03-29T00:01:23.633Z,10.50
2018-03-29T00:04:01.543Z,9.07
2018-03-29T00:06:41.066Z,9.87
2018-03-29T00:09:19.098Z,10.47
2018-03-29T00:11:54.181Z,7.60
2018-03-29T00:14:26.029Z,10.37
2018-03-29T00:16:59.385Z,7.47
2018-03-29T00:19:35.099Z,7.07
2018-03-29T00:22:11.207Z,9.85
2018-03-29T00:24:42.763Z,7.10
2018-03-29T00:27:11.881Z,8.40
2018-03-29T00:29:40.777Z,6.87
2018-03-29T00:32:09.644Z,7.10
2018-03-29T00:34:39.326Z,6.57
2018-03-29T00:37:08.243Z,7.93
2018-03-29T00:39:37.268Z,8.00
2018-03-29T00:42:06.145Z,7.55
2018-03-29T00:44:35.136Z,9.20
2018-03-29T00:47:03.986Z,7.40
2018-03-29T00:49:33.928Z,7.05
2018-03-29T00:52:02.937Z,7.65
2018-03-29T00:54:31.792Z,8.57
2018-03-29T00:57:01.640Z,10.10
2018-03-29T00:59:30.438Z,12.23
2018-03-29T01:02:00.326Z,7.37
2018-03-29T01:04:30.127Z,8.40
2018-03-29T01:06:59.745Z,8.05
2018-03-29T01:09:28.985Z,9.25
2018-03-29T01:11:57.855Z,8.13
2018-03-29T01:14:27.421Z,7.15
2018-03-29T01:16:56.538Z,7.57
2018-03-29T01:19:26.174Z,7.65
2018-03-29T01:21:55.017Z,6.70
2018-03-29T01:24:24.182Z,6.87
2018-03-29T01:26:52.972Z,6.67
2018-03-29T01:29:22.029Z,6.30
2018-03-29T01:31:51.866Z,7.18
2018-03-29T01:34:20.830Z,6.00
2018-03-29T01:36:50.434Z,6.62
2018-03-29T01:39:19.590Z,5.95
2018-03-29T01:41:48.427Z,6.12
2018-03-29T01:44:17.358Z,6.45
2018-03-29T01:46:46.185Z,5.47
2018-03-29T01:49:15.056Z,6.53
2018-03-29T01:51:43.889Z,5.25
2018-03-29T01:54:12.914Z,4.62
2018-03-29T01:56:41.834Z,4.53
2018-03-29T01:59:11.595Z,4.80
2018-03-29T02:01:40.478Z,5.78
2018-03-29T02:04:09.380Z,4.57
2018-03-29T02:06:38.234Z,3.95
2018-03-29T02:09:07.193Z,4.85
2018-03-29T02:11:36.178Z,5.72
2018-03-29T02:14:05.319Z,3.83
2018-03-29T02:16:34.242Z,3.90
2018-03-29T02:19:03.241Z,4.35
2018-03-29T02:21:32.070Z,3.08
2018-03-29T02:24:01.050Z,3.80
2018-03-29T02:26:30.898Z,3.53
2018-03-29T02:28:59.721Z,3.33
2018-03-29T02:31:28.632Z,3.50
2018-03-29T02:33:57.451Z,3.10
2018-03-29T02:36:26.301Z,3.10
2018-03-29T02:38:56.293Z,3.08
2018-03-29T02:41:25.610Z,2.53
2018-03-29T02:43:54.627Z,3.20
2018-03-29T02:46:23.764Z,3.42
2018-03-29T02:48:53.614Z,3.10
2018-03-29T02:51:22.817Z,3.20
2018-03-29T02:53:51.877Z,2.90
2018-03-29T02:56:21.786Z,3.08
2018-03-29T02:58:50.857Z,4.25
2018-03-29T03:01:20.174Z,2.83
2018-03-29T03:03:49.038Z,2.70
2018-03-29T03:06:17.874Z,3.60
2018-03-29T03:08:46.771Z,3.45
2018-03-29T03:11:16.379Z,4.12
2018-03-29T03:13:54.777Z,3.28
2018-03-29T03:16:25.892Z,3.85
2018-03-29T03:18:54.709Z,4.40
2018-03-29T03:21:23.751Z,4.68
2018-03-29T03:23:52.637Z,3.80
2018-03-29T03:26:22.704Z,3.70
2018-03-29T03:28:52.393Z,3.75
2018-03-29T03:31:21.397Z,3.50
2018-03-29T03:33:51.150Z,3.15
2018-03-29T03:36:20.138Z,3.97
2018-03-29T03:38:48.979Z,3.75
2018-03-29T03:41:17.906Z,3.85
2018-03-29T03:43:48.041Z,4.18
2018-03-29T03:46:17.695Z,5.62
2018-03-29T03:48:46.658Z,4.62
2018-03-29T03:51:15.671Z,4.78
2018-03-29T03:53:44.577Z,4.37
2018-03-29T03:56:13.817Z,6.22
2018-03-29T03:58:44.390Z,4.97
2018-03-29T04:01:13.321Z,4.68
2018-03-29T04:03:42.452Z,5.80
2018-03-29T04:06:11.817Z,4.70
2018-03-29T04:08:40.864Z,4.78
2018-03-29T04:11:09.764Z,4.82
2018-03-29T04:13:38.650Z,7.07
2018-03-29T04:16:07.893Z,5.65
2018-03-29T04:18:37.313Z,4.82
2018-03-29T04:21:06.206Z,5.10
2018-03-29T04:23:35.895Z,6.10
2018-03-29T04:26:05.730Z,5.00
2018-03-29T04:28:34.636Z,5.20
2018-03-29T04:31:04.050Z,5.72
2018-03-29T04:33:33.259Z,23.67
2018-03-29T04:36:02.248Z,85.30
2018-03-29T04:38:31.354Z,29.27
2018-03-29T04:41:00.348Z,74.10
2018-03-29T04:43:29.657Z,61.58
2018-03-29T04:45:58.597Z,9.95
2018-03-29T04:48:27.487Z,4.18
2018-03-29T04:50:57.129Z,4.90
2018-03-29T04:53:26.138Z,7.43
2018-03-29T04:55:55.044Z,5.80
2018-03-29T04:58:23.909Z,3.55
2018-03-29T05:00:52.802Z,3.20
2018-03-29T05:03:21.940Z,4.80
2018-03-29T05:05:51.869Z,6.25
2018-03-29T05:08:21.151Z,9.73
2018-03-29T05:10:50.858Z,4.22
2018-03-29T05:13:20.801Z,8.40
2018-03-29T05:15:50.607Z,3.53
2018-03-29T05:18:19.545Z,4.75
2018-03-29T05:20:48.441Z,3.70
2018-03-29T05:23:17.486Z,4.28
2018-03-29T05:25:47.230Z,3.60
2018-03-29T05:28:16.103Z,4.60
2018-03-29T05:30:45.388Z,3.25
2018-03-29T05:33:15.587Z,5.05
2018-03-29T05:35:45.419Z,4.60
2018-03-29T05:38:17.511Z,4.40
2018-03-29T05:40:47.844Z,3.95
2018-03-29T05:43:16.989Z,4.68
2018-03-29T05:45:46.002Z,4.45
2018-03-29T05:48:15.178Z,4.95
2018-03-29T05:50:44.234Z,6.57
2018-03-29T05:53:13.142Z,5.95
2018-03-29T05:55:41.950Z,7.10
2018-03-29T05:58:11.103Z,6.28
2018-03-29T06:00:40.100Z,8.38
2018-03-29T06:03:08.989Z,6.22
2018-03-29T06:05:37.880Z,6.37
2018-03-29T06:08:06.812Z,10.00
2018-03-29T06:10:36.120Z,11.95
2018-03-29T06:13:05.109Z,14.90
2018-03-29T06:15:35.045Z,8.30
2018-03-29T06:18:06.118Z,11.07
2018-03-29T06:20:36.110Z,6.60
2018-03-29T06:23:06.325Z,6.75
2018-03-29T06:25:35.803Z,8.50
2018-03-29T06:28:06.802Z,6.53
2018-03-29T06:30:36.389Z,9.30
2018-03-29T06:33:05.445Z,6.12
2018-03-29T06:35:34.816Z,7.95
2018-03-29T06:38:04.152Z,7.87
2018-03-29T06:40:33.735Z,7.37
2018-03-29T06:43:03.470Z,5.85
2018-03-29T06:58:33.393Z,8.27
2018-03-29T07:01:03.051Z,7.40
2018-03-29T07:03:32.256Z,7.82
2018-03-29T07:06:01.703Z,7.15
2018-03-29T07:08:31.630Z,7.43
2018-03-29T07:11:01.475Z,8.68
2018-03-29T07:13:30.638Z,7.15
2018-03-29T07:15:59.822Z,8.40
2018-03-29T07:18:29.407Z,6.05
2018-03-29T07:20:59.248Z,8.48
2018-03-29T07:23:28.225Z,7.62
2018-03-29T07:25:57.137Z,8.10
2018-03-29T07:28:26.995Z,8.23
2018-03-29T07:30:56.170Z,7.12
2018-03-29T07:33:25.162Z,7.37
2018-03-29T07:35:54.100Z,11.70
2018-03-29T07:38:23.327Z,11.52
2018-03-29T07:40:52.228Z,17.77
2018-03-29T07:43:21.429Z,17.20
2018-03-29T07:45:51.187Z,16.85
2018-03-29T07:48:20.200Z,16.62
2018-03-29T07:50:49.905Z,15.32
2018-03-29T07:53:19.738Z,16.90
2018-03-29T07:55:49.429Z,20.20
2018-03-29T07:58:19.064Z,24.05
2018-03-29T08:00:47.983Z,30.60
2018-03-29T08:03:17.026Z,16.30
2018-03-29T08:05:46.184Z,17.55
2018-03-29T08:08:15.236Z,18.08
2018-03-29T08:10:45.016Z,17.23
2018-03-29T08:13:14.002Z,20.98
2018-03-29T08:15:43.148Z,21.87
2018-03-29T08:18:13.048Z,25.30
2018-03-29T08:20:42.742Z,25.65
2018-03-29T08:23:12.446Z,28.58
2018-03-29T08:25:42.121Z,41.45
2018-03-29T08:28:12.442Z,46.65
2018-03-29T08:30:43.684Z,38.72
2018-03-29T08:33:12.953Z,39.70
2018-03-29T08:35:41.860Z,44.85
2018-03-29T08:38:11.464Z,33.58
2018-03-29T08:40:40.669Z,19.40
2018-03-29T08:43:10.392Z,17.85
2018-03-29T08:45:40.416Z,23.83
2018-03-29T08:48:10.441Z,21.70
2018-03-29T08:50:39.493Z,21.83
2018-03-29T08:53:08.408Z,20.92
2018-03-29T08:55:37.360Z,25.23
2018-03-29T08:58:07.366Z,31.65
2018-03-29T09:00:36.360Z,38.25
2018-03-29T09:03:05.296Z,46.08
2018-03-29T09:05:34.510Z,50.60
2018-03-29T09:08:03.528Z,68.18
2018-03-29T09:10:32.545Z,50.53
2018-03-29T09:13:02.252Z,37.45
2018-03-29T09:15:31.167Z,37.10
2018-03-29T09:18:00.078Z,37.20
2018-03-29T09:20:29.042Z,33.80
2018-03-29T09:22:58.072Z,31.62
2018-03-29T09:25:27.795Z,34.45
2018-03-29T09:27:57.018Z,29.55
2018-03-29T09:30:26.782Z,31.40
2018-03-29T09:32:55.705Z,38.78
2018-03-29T09:35:25.701Z,34.97
2018-03-29T09:37:54.666Z,31.83
2018-03-29T09:40:23.897Z,31.27
2018-03-29T09:42:53.449Z,35.67
2018-03-29T09:45:22.635Z,33.47
2018-03-29T09:47:51.601Z,36.92
2018-03-29T09:50:20.981Z,41.70
2018-03-29T09:52:51.304Z,54.95
2018-03-29T09:55:20.529Z,52.15
2018-03-29T09:57:49.895Z,65.12
2018-03-29T10:00:25.997Z,58.53
2018-03-29T10:15:54.955Z,66.93
2018-03-29T10:18:23.895Z,77.12
2018-03-29T10:20:52.900Z,73.80
2018-03-29T10:23:21.897Z,75.95
2018-03-29T10:25:50.955Z,88.45
2018-03-29T10:28:20.668Z,122.78
2018-03-29T10:30:50.353Z,142.87
2018-03-29T10:33:19.453Z,122.85
2018-03-29T10:35:49.221Z,143.65
2018-03-29T10:38:18.246Z,108.25
2018-03-29T10:40:47.230Z,114.25
2018-03-29T10:43:16.236Z,93.30
2018-03-29T10:45:45.981Z,87.20
2018-03-29T10:48:14.942Z,94.43
2018-03-29T10:50:44.746Z,98.57
2018-03-29T10:53:13.935Z,90.12
2018-03-29T10:55:43.676Z,102.15
2018-03-29T10:58:13.616Z,108.63
2018-03-29T11:00:43.524Z,95.65
2018-03-29T11:03:13.214Z,74.22
2018-03-29T11:05:42.110Z,70.20
2018-03-29T11:08:11.854Z,91.80
2018-03-29T11:10:40.722Z,70.05
2018-03-29T11:13:10.480Z,64.18
2018-03-29T11:15:39.394Z,59.53
2018-03-29T11:18:08.262Z,65.80
2018-03-29T11:20:38.204Z,68.65
2018-03-29T11:23:07.130Z,57.13
2018-03-29T11:25:36.120Z,58.85
2018-03-29T11:28:05.757Z,67.53
2018-03-29T11:30:34.703Z,60.38
2018-03-29T11:33:04.366Z,70.62
2018-03-29T11:35:33.406Z,67.60
2018-03-29T11:38:03.115Z,59.00
2018-03-29T11:40:32.127Z,54.22
2018-03-29T11:43:02.502Z,47.15
2018-03-29T11:45:31.653Z,47.72
2018-03-29T11:48:00.901Z,45.50
2018-03-29T11:50:29.952Z,51.17
2018-03-29T11:52:59.756Z,61.13
2018-03-29T11:55:28.718Z,54.45
2018-03-29T11:57:57.575Z,57.13
2018-03-29T12:00:27.383Z,49.97
2018-03-29T12:02:57.230Z,46.40
2018-03-29T12:05:27.076Z,41.70
2018-03-29T12:07:56.046Z,29.50
2018-03-29T12:10:24.966Z,21.67
2018-03-29T12:12:54.124Z,18.98
2018-03-29T12:15:23.113Z,26.73
2018-03-29T12:17:52.044Z,24.25
2018-03-29T12:20:21.116Z,23.13
2018-03-29T12:22:50.911Z,24.55
2018-03-29T12:25:19.860Z,28.65
2018-03-29T12:27:48.753Z,27.23
2018-03-29T12:30:17.732Z,32.28
2018-03-29T12:32:46.741Z,40.15
2018-03-29T12:35:15.834Z,55.90
2018-03-29T12:37:45.762Z,55.20
2018-03-29T12:40:14.844Z,59.03
2018-03-29T12:42:44.121Z,73.43
2018-03-29T12:45:13.861Z,80.12
2018-03-29T12:47:43.007Z,76.35
2018-03-29T12:50:12.411Z,60.05
2018-03-29T12:52:41.479Z,69.53
2018-03-29T12:55:22.153Z,48.17
2018-03-29T12:58:11.622Z,48.42
2018-03-29T13:00:40.509Z,36.47
2018-03-29T13:03:09.408Z,28.52
2018-03-29T13:05:38.410Z,26.05
2018-03-29T13:08:07.286Z,28.67
2018-03-29T13:23:36.383Z,33.83
2018-03-29T13:26:06.322Z,38.00
2018-03-29T13:28:36.054Z,42.88
2018-03-29T13:31:04.988Z,44.85
2018-03-29T13:33:34.752Z,37.38
2018-03-29T13:36:03.684Z,44.35
2018-03-29T13:38:32.595Z,42.20
2018-03-29T13:41:01.820Z,46.40
2018-03-29T13:43:30.900Z,58.10
2018-03-29T13:45:59.958Z,52.45
2018-03-29T13:48:28.968Z,60.67
2018-03-29T13:50:58.149Z,77.53
2018-03-29T13:53:27.101Z,96.18
2018-03-29T13:55:56.945Z,78.05
2018-03-29T13:58:27.043Z,77.22
2018-03-29T14:00:55.974Z,87.45
2018-03-29T14:03:25.673Z,98.47
2018-03-29T14:05:54.631Z,76.75
2018-03-29T14:08:23.553Z,71.32
2018-03-29T14:10:52.429Z,100.10
2018-03-29T14:13:21.495Z,107.50
2018-03-29T14:15:51.327Z,85.75
2018-03-29T14:18:20.662Z,81.95
2018-03-29T14:20:49.853Z,74.68
2018-03-29T14:23:18.826Z,94.25
2018-03-29T14:25:57.010Z,74.05
2018-03-29T14:28:26.650Z,79.82
2018-03-29T14:30:55.606Z,86.80
2018-03-29T14:33:25.499Z,98.35
2018-03-29T14:35:54.364Z,98.70
2018-03-29T14:38:24.306Z,64.43
2018-03-29T14:40:53.988Z,71.78
2018-03-29T14:43:23.228Z,53.42
2018-03-29T14:45:53.322Z,46.97
2018-03-29T14:48:22.321Z,38.95
2018-03-29T14:50:51.717Z,44.67
2018-03-29T14:53:20.982Z,37.40
2018-03-29T14:55:50.279Z,46.65
2018-03-29T14:58:19.299Z,37.60
2018-03-29T15:00:48.408Z,40.40
2018-03-29T15:03:17.369Z,45.10
2018-03-29T15:05:46.661Z,57.95
2018-03-29T15:08:15.644Z,54.83
2018-03-29T15:10:44.651Z,49.03
2018-03-29T15:13:13.542Z,57.88
2018-03-29T15:15:43.523Z,57.47
2018-03-29T15:18:13.256Z,80.50
2018-03-29T15:20:42.900Z,71.60
2018-03-29T15:23:11.808Z,72.43
2018-03-29T15:25:41.049Z,54.17
2018-03-29T15:28:10.656Z,52.42
2018-03-29T15:30:39.610Z,63.95
2018-03-29T15:33:09.467Z,54.50
2018-03-29T15:35:39.024Z,59.97
2018-03-29T15:38:08.331Z,75.70
2018-03-29T15:40:37.231Z,82.85
2018-03-29T15:43:07.285Z,80.32
2018-03-29T15:45:36.916Z,108.75
2018-03-29T15:48:06.756Z,115.65
2018-03-29T15:50:36.111Z,80.93
2018-03-29T15:53:06.895Z,72.75
2018-03-29T15:55:36.090Z,76.47
2018-03-29T15:58:05.124Z,85.35
2018-03-29T16:00:35.042Z,75.78
2018-03-29T16:03:04.302Z,81.57
2018-03-29T16:05:33.313Z,69.28
2018-03-29T16:08:02.246Z,70.55
2018-03-29T16:10:31.360Z,65.80
2018-03-29T16:13:01.158Z,71.70
2018-03-29T16:15:30.474Z,77.65
2018-03-29T16:18:00.478Z,88.10
2018-03-29T16:20:29.779Z,75.45
2018-03-29T16:22:58.780Z,70.30
2018-03-29T16:25:28.843Z,71.50
2018-03-29T16:27:57.976Z,69.82
2018-03-29T16:30:27.920Z,79.22
2018-03-29T16:32:56.974Z,74.03
2018-03-29T16:35:25.926Z,76.72
2018-03-29T16:37:55.162Z,79.05
2018-03-29T16:40:24.292Z,94.03
2018-03-29T16:42:55.127Z,92.32
2018-03-29T16:45:24.149Z,85.93
2018-03-29T16:47:53.274Z,92.37
2018-03-29T16:50:24.158Z,92.25
2018-03-29T16:52:53.412Z,94.40
2018-03-29T16:55:22.463Z,94.45
2018-03-29T16:57:52.348Z,99.95
2018-03-29T17:00:21.490Z,92.18
2018-03-29T17:02:50.467Z,100.45
2018-03-29T17:05:19.461Z,106.28
2018-03-29T17:07:48.578Z,118.45
2018-03-29T17:10:17.659Z,111.25
2018-03-29T17:12:46.959Z,119.22
2018-03-29T17:15:16.818Z,102.65
2018-03-29T17:17:46.598Z,107.75
2018-03-29T17:20:17.444Z,105.00
2018-03-29T17:22:46.677Z,107.20
2018-03-29T17:25:16.922Z,120.62
2018-03-29T17:27:46.178Z,131.75
2018-03-29T17:30:15.292Z,143.20
2018-03-29T17:45:45.030Z,130.60
2018-03-29T17:48:14.193Z,150.50
2018-03-29T17:50:43.154Z,140.10
2018-03-29T17:53:15.092Z,139.55
2018-03-29T17:55:44.176Z,128.55
2018-03-29T17:58:16.735Z,125.35
2018-03-29T18:00:45.984Z,118.62
2018-03-29T18:03:14.968Z,130.35
2018-03-29T18:05:45.421Z,128.05
2018-03-29T18:08:14.537Z,153.18
2018-03-29T18:10:44.538Z,151.82
2018-03-29T18:13:13.514Z,171.90
2018-03-29T18:15:42.783Z,140.95
2018-03-29T18:18:11.713Z,156.23
2018-03-29T18:20:40.877Z,165.88
2018-03-29T18:23:09.989Z,129.30
2018-03-29T18:25:38.853Z,122.85
2018-03-29T18:28:07.909Z,138.93
2018-03-29T18:30:36.768Z,136.65
2018-03-29T18:33:06.595Z,152.20
2018-03-29T18:35:35.748Z,153.50
2018-03-29T18:38:04.742Z,146.77
2018-03-29T18:40:33.726Z,153.52
2018-03-29T18:43:03.513Z,166.48
2018-03-29T18:45:32.582Z,170.55
2018-03-29T18:48:01.588Z,191.93
2018-03-29T18:50:30.598Z,211.10
2018-03-29T18:52:59.622Z,203.98
2018-03-29T18:55:28.881Z,222.35
2018-03-29T18:57:57.852Z,197.10
2018-03-29T19:00:26.878Z,187.90
2018-03-29T19:02:56.146Z,195.40
2018-03-29T19:05:25.818Z,237.93
2018-03-29T19:07:54.713Z,225.62
2018-03-29T19:10:24.443Z,213.35
2018-03-29T19:12:53.450Z,213.98
2018-03-29T19:15:25.050Z,195.25
2018-03-29T19:17:55.077Z,205.05
2018-03-29T19:20:24.119Z,213.80
2018-03-29T19:22:53.319Z,212.12
2018-03-29T19:25:22.765Z,212.38
2018-03-29T19:27:52.654Z,213.02
2018-03-29T19:30:22.688Z,224.37
2018-03-29T19:32:51.688Z,208.93
2018-03-29T19:35:20.718Z,192.87
2018-03-29T19:37:50.504Z,179.75
2018-03-29T19:40:19.555Z,168.05
2018-03-29T19:42:48.695Z,153.50
2018-03-29T19:45:17.816Z,144.23
2018-03-29T19:47:46.974Z,128.48
2018-03-29T19:50:16.086Z,113.50
2018-03-29T19:52:45.093Z,113.82
2018-03-29T19:55:14.023Z,99.10
2018-03-29T19:57:43.843Z,102.20
2018-03-29T20:00:12.961Z,98.07
2018-03-29T20:02:42.133Z,107.97
2018-03-29T20:05:11.382Z,102.10
2018-03-29T20:07:41.252Z,102.97
2018-03-29T20:10:10.177Z,113.25
2018-03-29T20:12:39.851Z,111.18
2018-03-29T20:15:11.241Z,104.35
2018-03-29T20:17:43.437Z,105.35
2018-03-29T20:20:16.334Z,110.12
2018-03-29T20:22:45.488Z,123.15
2018-03-29T20:25:14.357Z,113.18
2018-03-29T20:27:43.388Z,124.90
2018-03-29T20:30:12.358Z,126.57
2018-03-29T20:32:41.244Z,128.70
2018-03-29T20:35:10.353Z,119.97
2018-03-29T20:37:39.332Z,127.65
2018-03-29T20:40:09.321Z,129.73
2018-03-29T20:42:38.294Z,132.80
2018-03-29T20:45:07.231Z,134.35
2018-03-29T20:47:37.340Z,125.18
2018-03-29T20:50:06.418Z,133.77
2018-03-29T20:52:35.325Z,145.60
2018-03-29T20:55:04.540Z,145.55
2018-03-29T20:57:34.326Z,153.48
2018-03-29T21:00:03.339Z,149.45
2018-03-29T21:02:32.227Z,143.35
2018-03-29T21:05:01.282Z,154.48
2018-03-29T21:07:30.333Z,145.73
2018-03-29T21:09:59.674Z,164.98
2018-03-29T21:12:29.144Z,173.27
2018-03-29T21:14:58.759Z,162.85
2018-03-29T21:17:29.355Z,163.23
2018-03-29T21:19:59.853Z,175.27
2018-03-29T21:22:29.367Z,166.68
2018-03-29T21:24:59.170Z,153.77
2018-03-29T21:27:28.689Z,153.43
2018-03-29T21:29:58.335Z,157.07
2018-03-29T21:32:27.787Z,167.05
2018-03-29T21:34:57.753Z,166.60
2018-03-29T21:37:27.921Z,155.32
2018-03-29T21:39:57.575Z,179.55
2018-03-29T21:42:27.513Z,167.10
2018-03-29T21:44:56.860Z,165.00
2018-03-29T21:47:25.745Z,189.93
2018-03-29T21:49:54.864Z,176.93
2018-03-29T21:52:24.634Z,177.70
2018-03-29T21:54:53.578Z,201.20
2018-03-29T21:57:22.803Z,184.20
2018-03-29T21:59:51.836Z,198.55
2018-03-29T22:02:20.836Z,202.98
2018-03-29T22:04:49.827Z,207.65
2018-03-29T22:07:18.726Z,216.93
2018-03-29T22:09:47.849Z,201.62
2018-03-29T22:12:16.912Z,207.52
2018-03-29T22:14:45.955Z,222.52
2018-03-29T22:17:15.751Z,197.10
2018-03-29T22:19:44.677Z,180.95
2018-03-29T22:22:13.956Z,180.87
2018-03-29T22:24:42.951Z,184.75
2018-03-29T22:27:11.993Z,189.25
2018-03-29T22:29:41.102Z,150.15
2018-03-29T22:32:10.145Z,155.40
2018-03-29T22:34:39.231Z,143.27
2018-03-29T22:37:08.111Z,129.80
2018-03-29T22:39:37.490Z,118.35
2018-03-29T22:42:07.178Z,116.37
2018-03-29T22:44:36.172Z,102.45
2018-03-29T22:47:05.140Z,100.07
2018-03-29T22:49:35.014Z,97.82
2018-03-29T22:52:03.992Z,101.93
2018-03-29T22:54:32.977Z,108.63
2018-03-29T22:57:02.153Z,109.43
2018-03-29T22:59:31.337Z,107.75
2018-03-29T23:02:00.331Z,117.18
2018-03-29T23:04:29.894Z,123.62
2018-03-29T23:06:58.869Z,134.48
2018-03-29T23:09:27.770Z,146.80
2018-03-29T23:11:56.703Z,151.65
2018-03-29T23:14:25.781Z,136.52
2018-03-29T23:16:55.733Z,132.40
2018-03-29T23:19:25.416Z,131.43
2018-03-29T23:21:55.126Z,134.75
2018-03-29T23:24:24.185Z,132.68
2018-03-29T23:26:53.157Z,140.60
2018-03-29T23:29:22.092Z,150.23
2018-03-29T23:31:51.024Z,173.73
2018-03-29T23:34:19.943Z,168.10
2018-03-29T23:36:49.172Z,175.50
2018-03-29T23:39:18.009Z,176.70
2018-03-29T23:41:47.007Z,183.70
2018-03-29T23:44:16.264Z,198.38
2018-03-29T23:46:45.950Z,190.95
2018-03-29T23:49:14.933Z,186.70
2018-03-29T23:51:43.843Z,194.87
2018-03-29T23:54:13.640Z,184.35
2018-03-29T23:56:43.425Z,192.37
2018-03-29T23:59:13.197Z,202.52
